Terminal Aerodrome Forecast
Issued by NWS

Home | Current Version | Previous Version | Text Only | Print | Product List | Glossary On
Versions: 1 2 3 4 5 6 7 8 9 10 11 12 13 14 15 16 17 18 19 20 21 22 23 24 25 26 27 28 29 30 31 32 33 34
977
FTUS44 KLIX 042343
TAFHDC
TAF
KHDC 042343Z 0500/0524 01006KT 5SM RA BR OVC006
      TEMPO 0503/0507 2SM RA BR OVC004
     FM050700 05006KT 5SM RA BR OVC003
     FM051200 06006KT 3SM -SHRA BR OVC005
     FM051500 07006KT 2SM SHRA BR OVC003
     FM051800 09006KT 2SM TSRA BR OVC005CB=

USA.gov is the U.S. government's official web portal to all federal, state and local government web resources and services.